University Park, New Mexico
Current Conditions -  °F | °C
As of 9:35 PM on Sunday 25 Jan 2015 (Local Time) from KLRU Reporting Station
Clear Clear  
Wind Chill: 33°   Ceiling: Unl
Heat Index: 37°   Visibility: 10mi
Dew Point: 29°   Wind: 6mph
Humidity: 73%   Direction: 350°N
Pressure: 30.3"   Gusts: NA
Location:  32.2825°N, 106.737°W
Report Text: KLRU 260435Z AUTO 35005KT 10SM CLR 03/M01 A3030 RMK AO2 T00291015
Loading
Personal Weather Stations






























Interactive Weather Map New forecast layout! Learn more

10-Day Weather Forecast

Advertisements
Track Severe Weather on mobile